ADDS METAR Data

Data at: 0746 UTC 24 Oct 2017

METAR for:KORH (Worcester Muni, MA, US)
Text:KORH 240654Z AUTO 14011KT 10SM BKN009 OVC014 17/15 A3008 RMK AO2 CIG 007V012 SLP183 T01720150
Temperature: 17.2°C ( 63°F)
Dewpoint: 15.0°C ( 59°F) [RH = 87%]
Pressure (altimeter):30.08 inches Hg (1018.7 mb) [Sea level pressure: 1018.3 mb]
Winds:from the SE (140 degrees) at 13 MPH (11 knots; 5.7 m/s)
Visibility:10 or more sm (16+ km)
Ceiling:900 feet AGL
Clouds: broken clouds at 900 feet AGL, overcast cloud deck at 1400 feet AGL
QC Flag:automated observation with no human augmentation